Time;durP1;ratioP1;P1;durP2;ratioP2;P2;SDS_P1;SDS_P2;PMS_P1;PMS_P2;Temp;Humidity;BMP_temperature;BMP_pressure;BME280_temperature;BME280_humidity;BME280_pressure;Samples;Min_cycle;Max_cycle;Signal;HPM_P1;HPM_P2
2022/09/17 00:02:12;;;;;;;;;;;;;;;8.24;100.00;99288.75;5033866;28;20013;-77
2022/09/17 00:04:37;;;;;;;;;;;;;;;8.23;100.00;99292.09;5034131;28;19916;-77
2022/09/17 00:07:03;;;;;;;;;;;;;;;8.20;100.00;99290.25;5033816;28;20282;-77
2022/09/17 00:09:28;;;;;;;;;;;;;;;8.24;100.00;99285.91;5017232;28;19955;-77
2022/09/17 00:11:53;;;;;;;;;;;;;;;8.27;100.00;99284.09;5033522;28;20285;-76
2022/09/17 00:14:18;;;;;;;;;;;;;;;8.28;100.00;99288.53;5035047;28;20007;-77
2022/09/17 00:16:44;;;;;;;;;;;;;;;8.31;100.00;99285.44;5033778;28;19921;-77
2022/09/17 00:19:17;;;;;;;;;;;;;;;8.34;100.00;99284.47;5033343;28;20371;-77
2022/09/17 00:21:42;;;;;;;;;;;;;;;8.36;100.00;99283.97;5026399;28;20266;-77
2022/09/17 00:24:09;;;;;;;;;;;;;;;8.41;100.00;99285.31;5014467;28;19943;-76
2022/09/17 00:26:35;;;;;;;;;;;;;;;8.42;100.00;99275.44;4995707;28;19909;-78
2022/09/17 00:29:00;;;;;;;;;;;;;;;8.44;100.00;99278.59;5012483;28;19909;-78
2022/09/17 00:31:26;;;;;;;;;;;;;;;8.47;100.00;99275.50;5013234;28;19910;-78
2022/09/17 00:33:52;;;;;;;;;;;;;;;8.48;100.00;99279.13;4996121;28;19917;-78
2022/09/17 00:36:19;;;;;;;;;;;;;;;8.49;100.00;99275.00;4996773;28;19917;-78
2022/09/17 00:38:47;;;;;;;;;;;;;;;8.49;100.00;99269.31;4996421;28;19910;-79
2022/09/17 00:41:13;;;;;;;;;;;;;;;8.47;100.00;99266.97;4994745;28;20012;-79
2022/09/17 00:43:40;;;;;;;;;;;;;;;8.45;100.00;99268.78;5012988;28;20032;-79
2022/09/17 00:46:09;;;;;;;;;;;;;;;8.46;100.00;99267.50;4996013;28;20436;-79
2022/09/17 00:48:34;;;;;;;;;;;;;;;8.44;100.00;99268.00;5025510;28;19920;-78
2022/09/17 00:51:00;;;;;;;;;;;;;;;8.45;100.00;99268.78;5021742;28;20003;-77
2022/09/17 00:53:27;;;;;;;;;;;;;;;8.45;100.00;99272.41;4995934;28;19957;-77
2022/09/17 00:55:52;;;;;;;;;;;;;;;8.44;100.00;99272.91;4996901;28;19909;-77
2022/09/17 00:58:17;;;;;;;;;;;;;;;8.42;100.00;99272.59;5012351;28;19910;-77
2022/09/17 01:00:45;;;;;;;;;;;;;;;8.42;100.00;99281.16;5010805;28;19909;-77
2022/09/17 01:03:11;;;;;;;;;;;;;;;8.36;100.00;99275.44;5010964;28;19917;-77
2022/09/17 01:05:54;;;;;;;;;;;;;;;8.32;100.00;99274.84;4995050;28;19917;-78
2022/09/17 01:08:25;;;;;;;;;;;;;;;8.30;100.00;99275.38;5012667;28;19909;-77
2022/09/17 01:10:58;;;;;;;;;;;;;;;8.27;100.00;99287.75;4995150;28;19917;-77
2022/09/17 01:13:29;;;;;;;;;;;;;;;8.26;100.00;99279.72;5012609;28;19913;-77
2022/09/17 01:16:01;;;;;;;;;;;;;;;8.19;100.00;99285.84;5014604;28;20008;-77
2022/09/17 01:18:38;;;;;;;;;;;;;;;8.18;100.00;99270.84;5012735;28;20346;-77
2022/09/17 01:21:22;;;;;;;;;;;;;;;8.16;100.00;99279.09;5012693;28;19952;-77
2022/09/17 01:23:56;;;;;;;;;;;;;;;8.13;100.00;99274.38;5013906;28;19920;-77
2022/09/17 01:26:48;;;;;;;;;;;;;;;8.14;100.00;99266.63;5012583;28;19909;-77
2022/09/17 01:29:31;;;;;;;;;;;;;;;8.12;100.00;99266.34;5005388;28;19909;-77
2022/09/17 01:31:56;;;;;;;;;;;;;;;8.15;100.00;99262.50;5012595;28;20370;-78
2022/09/17 01:34:27;;;;;;;;;;;;;;;8.14;100.00;99267.41;5012317;28;19967;-77
2022/09/17 01:36:58;;;;;;;;;;;;;;;8.14;100.00;99270.25;4996329;28;19971;-77
2022/09/17 01:39:36;;;;;;;;;;;;;;;8.14;100.00;99267.41;5012510;28;19910;-77
2022/09/17 01:42:15;;;;;;;;;;;;;;;8.14;100.00;99272.31;5012439;28;19909;-78
2022/09/17 01:45:00;;;;;;;;;;;;;;;8.11;100.00;99264.78;5012646;28;19909;-78
2022/09/17 01:47:42;;;;;;;;;;;;;;;8.10;100.00;99272.53;5012281;28;19916;-77
2022/09/17 01:50:08;;;;;;;;;;;;;;;8.08;100.00;99268.63;5012878;28;19914;-77
2022/09/17 01:52:34;;;;;;;;;;;;;;;8.05;100.00;99264.72;4996191;28;19909;-77
2022/09/17 01:55:01;;;;;;;;;;;;;;;8.02;100.00;99264.94;5012662;28;19917;-77
2022/09/17 01:57:32;;;;;;;;;;;;;;;7.99;100.00;99266.72;5012442;28;19909;-78
2022/09/17 02:00:00;;;;;;;;;;;;;;;7.95;100.00;99263.31;5013330;28;20384;-78
2022/09/17 02:02:33;;;;;;;;;;;;;;;7.95;100.00;99264.09;4999391;28;19972;-77
2022/09/17 02:05:08;;;;;;;;;;;;;;;7.94;100.00;99270.28;5016100;28;19933;-76
2022/09/17 02:07:35;;;;;;;;;;;;;;;7.87;100.00;99265.81;5017239;28;19909;-78
2022/09/17 02:10:03;;;;;;;;;;;;;;;7.91;100.00;99263.56;4999510;28;20366;-78
2022/09/17 02:12:36;;;;;;;;;;;;;;;7.90;100.00;99267.69;4999555;28;19992;-78
2022/09/17 02:15:03;;;;;;;;;;;;;;;7.89;100.00;99265.31;4999456;28;19959;-78
2022/09/17 02:17:33;;;;;;;;;;;;;;;7.89;100.00;99274.63;4999451;28;19915;-78
2022/09/17 02:19:59;;;;;;;;;;;;;;;7.88;100.00;99277.97;5015768;28;20350;-78
2022/09/17 02:22:43;;;;;;;;;;;;;;;7.84;100.00;99268.88;5015467;28;19964;-78
2022/09/17 02:25:20;;;;;;;;;;;;;;;7.82;100.00;99263.69;5016980;28;20036;-77
2022/09/17 02:28:07;;;;;;;;;;;;;;;7.79;100.00;99261.06;5016880;28;19917;-77
2022/09/17 02:30:33;;;;;;;;;;;;;;;7.76;100.00;99262.84;5015583;28;19932;-78
2022/09/17 02:32:58;;;;;;;;;;;;;;;7.74;100.00;99262.56;5016607;28;20369;-77
2022/09/17 02:35:23;;;;;;;;;;;;;;;7.73;100.00;99261.00;4999132;28;19962;-77
2022/09/17 02:37:48;;;;;;;;;;;;;;;7.74;100.00;99258.94;5015536;28;20417;-77
2022/09/17 02:40:14;;;;;;;;;;;;;;;7.73;100.00;99263.06;4999126;28;19964;-78
2022/09/17 02:42:43;;;;;;;;;;;;;;;7.75;100.00;99266.19;5015357;28;19913;-78
2022/09/17 02:45:18;;;;;;;;;;;;;;;7.76;100.00;99259.22;5016489;28;19963;-79
2022/09/17 02:47:46;;;;;;;;;;;;;;;7.75;100.00;99252.75;5016440;28;20282;-78
2022/09/17 02:50:23;;;;;;;;;;;;;;;7.80;100.00;99256.94;4999840;28;19909;-78
2022/09/17 02:52:53;;;;;;;;;;;;;;;7.83;100.00;99256.72;5010619;28;19909;-78
2022/09/17 02:55:19;;;;;;;;;;;;;;;7.93;100.00;99246.75;4999337;28;20290;-78
2022/09/17 02:57:45;;;;;;;;;;;;;;;8.06;100.00;99248.44;5014883;28;19909;-79
2022/09/17 03:00:15;;;;;;;;;;;;;;;8.15;100.00;99242.59;4998663;28;19917;-79
2022/09/17 03:02:42;;;;;;;;;;;;;;;8.25;100.00;99244.00;4998226;28;19917;-79
2022/09/17 03:05:07;;;;;;;;;;;;;;;8.35;100.00;99248.25;5014939;28;19932;-79
2022/09/17 03:07:32;;;;;;;;;;;;;;;8.43;100.00;99240.00;5014947;28;20347;-78
2022/09/17 03:09:58;;;;;;;;;;;;;;;8.54;100.00;99246.59;5014965;28;19964;-78
2022/09/17 03:12:24;;;;;;;;;;;;;;;8.65;100.00;99245.91;5014232;28;19909;-78
2022/09/17 03:14:50;;;;;;;;;;;;;;;8.73;100.00;99252.69;5016236;28;19909;-77
2022/09/17 03:17:16;;;;;;;;;;;;;;;8.91;100.00;99251.53;5014843;28;20046;-78
2022/09/17 03:19:41;;;;;;;;;;;;;;;9.03;100.00;99245.41;4998196;28;20004;-78
2022/09/17 03:22:07;;;;;;;;;;;;;;;9.09;100.00;99251.16;4998164;28;19920;-77
2022/09/17 03:24:33;;;;;;;;;;;;;;;9.20;100.00;99251.97;5014529;28;20366;-78
2022/09/17 03:26:58;;;;;;;;;;;;;;;9.29;100.00;99250.22;5014442;28;19962;-79
2022/09/17 03:29:24;;;;;;;;;;;;;;;9.38;100.00;99244.31;5014443;28;19956;-79
2022/09/17 03:31:49;;;;;;;;;;;;;;;9.46;100.00;99251.06;5014467;28;19917;-79
2022/09/17 03:34:15;;;;;;;;;;;;;;;9.45;100.00;99253.16;5014738;28;19909;-78
2022/09/17 03:36:40;;;;;;;;;;;;;;;9.45;100.00;99258.06;5015612;28;19909;-79
2022/09/17 03:39:05;;;;;;;;;;;;;;;9.33;100.00;99254.41;5014326;28;19910;-78
2022/09/17 03:41:30;;;;;;;;;;;;;;;9.35;100.00;99260.34;5015492;28;19909;-79
2022/09/17 03:43:56;;;;;;;;;;;;;;;9.41;100.00;99257.53;5015288;28;19913;-79
2022/09/17 03:46:21;;;;;;;;;;;;;;;9.45;100.00;99250.28;5014190;28;19915;-78
2022/09/17 03:48:46;;;;;;;;;;;;;;;9.32;100.00;99252.03;5015379;28;19992;-78
2022/09/17 03:51:11;;;;;;;;;;;;;;;9.23;100.00;99244.50;5015504;28;19916;-78
2022/09/17 03:53:37;;;;;;;;;;;;;;;9.19;100.00;99253.28;4997796;28;19910;-78
2022/09/17 03:56:04;;;;;;;;;;;;;;;9.25;100.00;99248.38;4997655;28;19909;-77
2022/09/17 03:58:29;;;;;;;;;;;;;;;9.23;100.00;99248.13;4997791;28;19913;-78
2022/09/17 04:00:56;;;;;;;;;;;;;;;9.25;100.00;99251.22;5015499;28;19955;-77
2022/09/17 04:03:22;;;;;;;;;;;;;;;9.43;100.00;99250.03;5013619;28;20051;-78
2022/09/17 04:05:47;;;;;;;;;;;;;;;9.52;100.00;99240.47;5014070;28;19964;-78
2022/09/17 04:08:13;;;;;;;;;;;;;;;9.61;100.00;99240.25;5013956;28;19909;-77
2022/09/17 04:10:38;;;;;;;;;;;;;;;9.50;100.00;99232.44;5013734;28;20081;-79
2022/09/17 04:13:03;;;;;;;;;;;;;;;9.61;100.00;99241.03;5015150;28;19909;-78
2022/09/17 04:15:28;;;;;;;;;;;;;;;9.56;100.00;99241.78;5013829;28;19913;-77
2022/09/17 04:17:54;;;;;;;;;;;;;;;9.59;100.00;99240.00;4997227;28;19947;-78
2022/09/17 04:20:19;;;;;;;;;;;;;;;9.58;100.00;99230.66;4997164;28;19913;-77
2022/09/17 04:22:44;;;;;;;;;;;;;;;9.63;100.00;99241.31;5012674;28;19937;-78
2022/09/17 04:25:10;;;;;;;;;;;;;;;9.68;100.00;99239.78;5013463;28;19959;-78
2022/09/17 04:27:35;;;;;;;;;;;;;;;9.75;100.00;99241.38;5014673;28;20354;-78
2022/09/17 04:30:00;;;;;;;;;;;;;;;9.81;100.00;99242.19;5014605;28;19910;-78
2022/09/17 04:32:27;;;;;;;;;;;;;;;9.87;100.00;99237.28;5014257;28;20384;-77
2022/09/17 04:34:52;;;;;;;;;;;;;;;9.91;100.00;99229.25;5012913;28;19909;-77
2022/09/17 04:37:18;;;;;;;;;;;;;;;9.99;100.00;99233.91;5011194;28;20366;-78
2022/09/17 04:39:43;;;;;;;;;;;;;;;10.03;100.00;99228.75;4995190;28;19963;-78
2022/09/17 04:42:09;;;;;;;;;;;;;;;9.97;100.00;99238.59;5011201;28;19913;-78
2022/09/17 04:44:34;;;;;;;;;;;;;;;10.04;100.00;99243.78;5011340;28;19916;-76
2022/09/17 04:46:59;;;;;;;;;;;;;;;9.85;100.00;99240.63;4994683;28;19916;-79
2022/09/17 04:49:28;;;;;;;;;;;;;;;9.89;100.00;99246.09;4994890;28;19916;-79
2022/09/17 04:51:53;;;;;;;;;;;;;;;9.84;100.00;99241.91;4997401;28;19909;-79
2022/09/17 04:54:19;;;;;;;;;;;;;;;9.85;100.00;99237.00;5015670;28;19913;-78
2022/09/17 04:56:58;;;;;;;;;;;;;;;9.82;100.00;99247.38;5014331;28;19916;-79
2022/09/17 04:59:24;;;;;;;;;;;;;;;9.91;100.00;99255.69;5013196;28;19948;-77
2022/09/17 05:01:50;;;;;;;;;;;;;;;10.05;100.00;99251.06;5014066;28;19956;-77
2022/09/17 05:04:15;;;;;;;;;;;;;;;10.09;100.00;99251.59;5013037;28;19914;-77
2022/09/17 05:06:42;;;;;;;;;;;;;;;10.09;100.00;99246.66;5012938;28;19963;-77
2022/09/17 05:09:07;;;;;;;;;;;;;;;10.13;100.00;99249.28;5012902;28;19909;-77
2022/09/17 05:11:33;;;;;;;;;;;;;;;9.97;100.00;99250.78;5012831;28;19910;-78
2022/09/17 05:13:59;;;;;;;;;;;;;;;10.19;100.00;99252.91;5012884;28;19910;-79
2022/09/17 05:16:24;;;;;;;;;;;;;;;10.21;100.00;99243.84;4996492;28;20362;-75
2022/09/17 05:18:52;;;;;;;;;;;;;;;10.34;100.00;99241.25;5013406;28;19909;-79
2022/09/17 05:21:19;;;;;;;;;;;;;;;10.35;100.00;99237.09;5014175;28;19960;-79
2022/09/17 05:23:46;;;;;;;;;;;;;;;10.26;100.00;99252.41;5013957;28;19921;-79
2022/09/17 05:26:13;;;;;;;;;;;;;;;10.30;100.00;99238.66;5012950;28;19920;-78
2022/09/17 05:28:38;;;;;;;;;;;;;;;10.52;100.00;99240.75;5013132;28;19913;-78
2022/09/17 05:31:05;;;;;;;;;;;;;;;10.70;100.00;99237.38;5012747;28;20481;-78
2022/09/17 05:33:31;;;;;;;;;;;;;;;10.84;100.00;99230.59;5012854;28;20377;-78
2022/09/17 05:36:12;;;;;;;;;;;;;;;10.82;100.00;99241.81;5016539;28;19910;-81
2022/09/17 05:38:38;;;;;;;;;;;;;;;10.82;100.00;99243.88;5016719;28;19910;-78
2022/09/17 05:41:05;;;;;;;;;;;;;;;10.95;100.00;99241.25;5016864;28;19909;-79
2022/09/17 05:43:39;;;;;;;;;;;;;;;10.87;100.00;99241.00;5000227;28;19917;-79
2022/09/17 05:46:05;;;;;;;;;;;;;;;10.96;100.00;99235.03;5017861;28;20429;-80
2022/09/17 05:48:49;;;;;;;;;;;;;;;11.09;100.00;99237.31;5015074;28;19909;-78
2022/09/17 05:51:14;;;;;;;;;;;;;;;11.22;100.00;99228.25;5017867;28;19956;-79
2022/09/17 05:53:39;;;;;;;;;;;;;;;11.20;100.00;99236.56;5016329;28;19913;-79
2022/09/17 05:56:04;;;;;;;;;;;;;;;11.23;100.00;99242.00;5017551;28;19909;-78
2022/09/17 05:58:33;;;;;;;;;;;;;;;11.26;100.00;99228.75;5015065;28;19963;-79
2022/09/17 06:00:59;;;;;;;;;;;;;;;11.15;100.00;99234.50;5016079;28;20424;-76
2022/09/17 06:03:25;;;;;;;;;;;;;;;11.24;100.00;99242.78;5016024;28;19927;-76
2022/09/17 06:06:09;;;;;;;;;;;;;;;11.38;100.00;99236.75;5017304;28;19909;-74
2022/09/17 06:08:35;;;;;;;;;;;;;;;11.50;100.00;99239.59;5016606;28;20321;-75
2022/09/17 06:11:07;;;;;;;;;;;;;;;11.40;100.00;99234.16;4999511;28;19909;-78
2022/09/17 06:13:33;;;;;;;;;;;;;;;11.41;100.00;99234.94;4999587;28;19909;-77
2022/09/17 06:15:59;;;;;;;;;;;;;;;11.40;100.00;99244.84;5000062;28;19941;-76
2022/09/17 06:18:26;;;;;;;;;;;;;;;11.48;100.00;99245.84;5016130;28;19936;-76
2022/09/17 06:20:58;;;;;;;;;;;;;;;11.66;100.00;99245.25;4999816;28;20346;-77
2022/09/17 06:23:23;;;;;;;;;;;;;;;11.58;100.00;99254.91;5017221;28;19920;-76
2022/09/17 06:25:57;;;;;;;;;;;;;;;11.56;100.00;99258.31;5016852;28;19913;-76
2022/09/17 06:28:26;;;;;;;;;;;;;;;11.82;100.00;99255.84;5016550;28;19996;-75
2022/09/17 06:30:53;;;;;;;;;;;;;;;11.86;100.00;99257.66;5016589;28;20274;-75
2022/09/17 06:33:19;;;;;;;;;;;;;;;11.77;100.00;99265.22;5019402;28;20019;-74
2022/09/17 06:35:45;;;;;;;;;;;;;;;11.82;100.00;99275.09;5017012;28;19910;-75
2022/09/17 06:38:11;;;;;;;;;;;;;;;11.87;100.00;99273.50;5015664;28;19910;-76
2022/09/17 06:40:37;;;;;;;;;;;;;;;11.84;100.00;99266.78;4999357;28;19909;-76
2022/09/17 06:43:03;;;;;;;;;;;;;;;11.77;100.00;99285.25;5016680;28;20354;-74
2022/09/17 06:45:30;;;;;;;;;;;;;;;11.62;100.00;99281.16;5016091;28;19976;-75
2022/09/17 06:47:56;;;;;;;;;;;;;;;11.72;100.00;99283.19;4998903;28;19913;-74
2022/09/17 06:50:23;;;;;;;;;;;;;;;11.75;100.00;99275.66;5015051;28;19939;-74
2022/09/17 06:52:51;;;;;;;;;;;;;;;11.58;100.00;99284.28;5016514;28;19909;-75
2022/09/17 06:55:17;;;;;;;;;;;;;;;11.69;100.00;99284.25;5016631;28;19909;-76
2022/09/17 06:57:42;;;;;;;;;;;;;;;11.71;100.00;99280.88;4999410;28;19920;-75
2022/09/17 07:00:08;;;;;;;;;;;;;;;11.66;100.00;99281.69;5015335;28;19910;-75
2022/09/17 07:02:33;;;;;;;;;;;;;;;11.62;100.00;99278.28;5014580;28;19917;-75
2022/09/17 07:04:59;;;;;;;;;;;;;;;11.72;100.00;99282.41;5014885;28;19953;-75
2022/09/17 07:07:25;;;;;;;;;;;;;;;11.76;100.00;99286.56;5014844;28;19952;-75
2022/09/17 07:09:52;;;;;;;;;;;;;;;11.67;100.00;99304.03;5014841;28;20342;-75
2022/09/17 07:12:33;;;;;;;;;;;;;;;11.67;100.00;99292.59;5015961;28;19909;-75
2022/09/17 07:14:58;;;;;;;;;;;;;;;11.79;100.00;99294.13;5015944;28;19940;-75
2022/09/17 07:17:24;;;;;;;;;;;;;;;11.89;100.00;99293.81;5015859;28;19957;-75
2022/09/17 07:19:50;;;;;;;;;;;;;;;11.93;100.00;99300.81;5015847;28;19983;-75
2022/09/17 07:22:17;;;;;;;;;;;;;;;12.02;100.00;99300.50;5015631;28;20278;-75
2022/09/17 07:24:43;;;;;;;;;;;;;;;12.08;100.00;99295.53;5014336;28;19964;-76
2022/09/17 07:27:11;;;;;;;;;;;;;;;12.03;100.00;99284.91;5015939;28;19916;-76
2022/09/17 07:29:36;;;;;;;;;;;;;;;12.05;100.00;99290.88;5015664;28;19917;-75
2022/09/17 07:32:03;;;;;;;;;;;;;;;12.05;100.00;99299.47;5018802;28;19909;-76
2022/09/17 07:34:28;;;;;;;;;;;;;;;12.18;100.00;99304.59;5024875;28;20016;-75
2022/09/17 07:36:55;;;;;;;;;;;;;;;12.32;100.00;99297.75;5025125;28;20094;-74
2022/09/17 07:39:21;;;;;;;;;;;;;;;12.44;100.00;99304.22;5038277;28;19913;-75
2022/09/17 07:41:47;;;;;;;;;;;;;;;12.46;100.00;99318.78;5025578;28;19964;-76
2022/09/17 07:44:13;;;;;;;;;;;;;;;12.55;100.00;99324.97;5042804;28;19967;-78
2022/09/17 07:46:40;;;;;;;;;;;;;;;12.37;100.00;99314.16;5021749;28;19917;-79
2022/09/17 07:49:05;;;;;;;;;;;;;;;12.38;100.00;99335.78;5025453;28;19943;-78
2022/09/17 07:51:31;;;;;;;;;;;;;;;12.43;100.00;99326.38;5021719;28;19913;-78
2022/09/17 07:53:58;;;;;;;;;;;;;;;12.38;100.00;99317.81;5007373;28;19939;-77
2022/09/17 07:56:26;;;;;;;;;;;;;;;12.50;100.00;99317.22;5025544;28;20075;-77
2022/09/17 07:58:52;;;;;;;;;;;;;;;12.54;100.00;99328.41;5043213;28;19921;-78
2022/09/17 08:01:22;;;;;;;;;;;;;;;12.69;100.00;99332.47;5019195;28;20382;-78
2022/09/17 08:03:51;;;;;;;;;;;;;;;12.67;100.00;99335.09;5035059;28;19948;-78
2022/09/17 08:06:19;;;;;;;;;;;;;;;12.67;100.00;99337.16;5051176;28;19928;-78
2022/09/17 08:08:44;;;;;;;;;;;;;;;12.67;100.00;99325.69;5049782;28;19924;-78
2022/09/17 08:11:11;;;;;;;;;;;;;;;12.80;100.00;99331.59;5032500;28;19913;-79
2022/09/17 08:13:39;;;;;;;;;;;;;;;12.91;100.00;99336.47;5032643;28;19982;-78
2022/09/17 08:16:12;;;;;;;;;;;;;;;12.96;100.00;99335.66;5032901;28;19916;-78
2022/09/17 08:18:37;;;;;;;;;;;;;;;12.84;100.00;99329.25;5049236;28;19913;-76
2022/09/17 08:21:04;;;;;;;;;;;;;;;12.73;100.00;99322.78;5049540;28;19980;-76
2022/09/17 08:23:32;;;;;;;;;;;;;;;12.52;100.00;99326.06;5032967;28;19913;-78
2022/09/17 08:25:59;;;;;;;;;;;;;;;12.49;100.00;99330.00;5050040;28;19917;-78
2022/09/17 08:28:31;;;;;;;;;;;;;;;12.45;100.00;99332.38;5034165;28;19913;-77
2022/09/17 08:31:01;;;;;;;;;;;;;;;12.51;100.00;99320.84;5013884;28;19944;-77
2022/09/17 08:33:29;;;;;;;;;;;;;;;12.55;100.00;99327.84;5013596;28;19917;-79
2022/09/17 08:35:59;;;;;;;;;;;;;;;12.43;100.00;99329.25;5013251;28;19913;-79
2022/09/17 08:38:28;;;;;;;;;;;;;;;12.49;100.00;99329.22;5014419;28;19909;-80
2022/09/17 08:41:13;;;;;;;;;;;;;;;12.57;100.00;99328.09;5014198;28;19971;-78
2022/09/17 08:43:55;;;;;;;;;;;;;;;12.67;100.00;99315.00;5012410;28;20000;-77
2022/09/17 08:46:35;;;;;;;;;;;;;;;12.68;100.00;99324.41;5026059;28;19920;-78
2022/09/17 08:49:29;;;;;;;;;;;;;;;12.98;100.00;99319.47;5034709;28;19913;-82
2022/09/17 08:51:54;;;;;;;;;;;;;;;13.31;100.00;99323.34;5031592;28;19953;-82
2022/09/17 08:54:38;;;;;;;;;;;;;;;13.13;100.00;99301.88;5034639;28;19909;-83
2022/09/17 08:57:04;;;;;;;;;;;;;;;13.20;100.00;99314.84;5040561;28;19893;-81
2022/09/17 08:59:49;;;;;;;;;;;;;;;13.22;100.00;99318.75;5055499;28;19907;-78
2022/09/17 09:02:38;;;;;;;;;;;;;;;13.51;100.00;99303.63;5035176;28;20350;-82
2022/09/17 09:05:14;;;;;;;;;;;;;;;13.92;100.00;99308.38;4996666;28;19913;-83
2022/09/17 09:07:42;;;;;;;;;;;;;;;14.18;100.00;99302.06;5032366;28;20444;-79
2022/09/17 09:10:25;;;;;;;;;;;;;;;14.13;100.00;99306.56;5025627;28;19917;-81
2022/09/17 09:12:53;;;;;;;;;;;;;;;13.88;100.00;99311.56;5030253;28;19909;-81
2022/09/17 09:15:30;;;;;;;;;;;;;;;14.03;100.00;99316.09;5028757;28;19909;-81
2022/09/17 09:19:45;;;;;;;7.50;2.80;;;;;;;14.32;100.00;99326.69;5069853;28;20469;-86
2022/09/17 09:22:13;;;;;;;4.95;2.60;;;;;;;14.16;100.00;99324.78;5052896;28;20025;-81
2022/09/17 09:25:03;;;;;;;9.18;3.90;;;;;;;14.20;100.00;99334.66;5069484;28;20035;-80
2022/09/17 09:27:39;;;;;;;4.32;3.00;;;;;;;14.10;100.00;99353.59;5070048;28;20025;-79
2022/09/17 09:30:09;;;;;;;5.63;3.13;;;;;;;14.10;100.00;99362.22;5051663;28;20028;-78
2022/09/17 09:33:11;;;;;;;4.25;3.35;;;;;;;14.06;100.00;99373.22;5069743;28;20020;-78
2022/09/17 09:35:40;;;;;;;5.90;3.45;;;;;;;13.87;100.00;99373.19;5070713;28;20361;-79
2022/09/17 09:38:45;;;;;;;4.10;2.92;;;;;;;13.43;100.00;99387.94;5069660;28;20025;-76
2022/09/17 09:41:14;;;;;;;3.85;2.83;;;;;;;13.01;100.00;99383.59;5053951;28;20078;-80
2022/09/17 09:43:50;;;;;;;5.13;3.03;;;;;;;13.03;100.00;99384.63;5054910;28;20029;-82
2022/09/17 09:46:43;;;;;;;4.93;3.25;;;;;;;13.18;100.00;99387.13;5070151;28;20024;-80
2022/09/17 09:49:32;;;;;;;8.40;3.38;;;;;;;13.11;100.00;99390.53;5071066;28;20021;-80
2022/09/17 09:52:35;;;;;;;3.95;2.90;;;;;;;13.08;100.00;99391.63;5053103;28;20129;-80
2022/09/17 09:55:30;;;;;;;5.90;3.00;;;;;;;13.22;100.00;99386.81;5070956;28;20021;-78
2022/09/17 09:58:23;;;;;;;3.70;2.83;;;;;;;13.28;100.00;99391.22;5069556;28;20021;-76
2022/09/17 10:00:57;;;;;;;3.60;2.65;;;;;;;13.33;100.00;99399.00;5045686;28;20045;-78
2022/09/17 10:03:36;;;;;;;3.70;2.67;;;;;;;13.16;100.00;99386.84;5032902;28;20029;-75
2022/09/17 10:06:08;;;;;;;3.90;3.00;;;;;;;12.86;100.00;99377.44;5049034;28;20017;-76
2022/09/17 10:08:39;;;;;;;3.75;2.90;;;;;;;13.00;100.00;99390.63;5032286;28;20446;-80
2022/09/17 10:11:26;;;;;;;5.47;3.95;;;;;;;13.14;100.00;99383.75;5032800;28;20116;-80
2022/09/17 10:13:52;;;;;;;4.97;3.97;;;;;;;13.30;100.00;99390.66;5033054;28;20025;-79
2022/09/17 10:16:18;;;;;;;6.72;3.42;;;;;;;13.46;100.00;99395.47;5048957;28;20120;-81
2022/09/17 10:18:46;;;;;;;4.97;3.80;;;;;;;13.34;100.00;99391.91;5050000;28;20475;-82
2022/09/17 10:21:29;;;;;;;3.85;3.42;;;;;;;13.32;100.00;99385.94;5032229;28;20052;-82
2022/09/17 10:23:54;;;;;;;5.60;3.28;;;;;;;13.49;100.00;99375.09;5032580;28;20465;-78
2022/09/17 10:26:37;;;;;;;4.75;3.28;;;;;;;13.67;100.00;99376.53;5050133;28;20087;-82
2022/09/17 10:29:21;;;;;;;3.85;3.05;;;;;;;13.68;100.00;99391.66;5031181;28;20025;-83
2022/09/17 10:31:49;;;;;;;3.90;3.25;;;;;;;13.72;100.00;99392.13;5019336;28;20025;-82
2022/09/17 10:34:24;;;;;;;4.65;2.90;;;;;;;13.45;100.00;99388.19;5038409;28;20487;-82
2022/09/17 10:36:50;;;;;;;4.30;2.47;;;;;;;13.53;100.00;99381.38;5019224;28;20470;-81
2022/09/17 10:39:36;;;;;;;3.80;2.67;;;;;;;13.37;100.00;99388.00;5018854;28;20032;-81
2022/09/17 10:42:13;;;;;;;3.50;2.58;;;;;;;13.35;100.00;99384.88;5035376;28;20474;-81
2022/09/17 10:44:53;;;;;;;3.45;1.88;;;;;;;13.29;100.00;99381.28;5018805;28;20028;-82
2022/09/17 10:47:28;;;;;;;2.30;1.80;;;;;;;13.10;100.00;99391.84;5018821;28;20165;-82
2022/09/17 10:50:05;;;;;;;2.50;1.90;;;;;;;13.05;100.00;99386.94;5041720;28;20029;-80
2022/09/17 10:52:42;;;;;;;6.47;2.05;;;;;;;13.03;100.00;99380.97;5037599;28;20517;-83
2022/09/17 10:55:38;;;;;;;2.67;1.80;;;;;;;12.92;100.00;99386.78;5036134;28;20029;-79
2022/09/17 10:58:07;;;;;;;3.28;2.10;;;;;;;13.00;100.00;99387.75;5037302;28;20029;-79
2022/09/17 11:00:57;;;;;;;2.40;2.20;;;;;;;13.03;100.00;99378.88;5037451;28;20033;-79
2022/09/17 11:03:54;;;;;;;2.40;2.05;;;;;;;13.28;100.00;99376.88;5048267;28;20082;-79
2022/09/17 11:06:49;;;;;;;4.20;1.80;;;;;;;13.83;100.00;99374.81;5035187;28;20017;-80
2022/09/17 11:09:33;;;;;;;3.03;2.10;;;;;;;14.13;100.00;99377.59;4983007;28;20115;-80
2022/09/17 11:12:19;;;;;;;2.92;1.77;;;;;;;14.32;100.00;99361.94;5034345;28;20051;-80
2022/09/17 11:15:12;;;;;;;3.03;1.95;;;;;;;14.28;100.00;99354.94;5032927;28;20025;-80
2022/09/17 11:17:54;;;;;;;1.98;1.40;;;;;;;14.28;100.00;99354.94;5033965;28;20053;-80
2022/09/17 11:20:48;;;;;;;2.42;1.92;;;;;;;14.60;100.00;99361.59;5034196;28;20025;-79
2022/09/17 11:23:45;;;;;;;1.75;1.63;;;;;;;14.63;100.00;99366.25;5035553;28;20021;-79
2022/09/17 11:26:39;;;;;;;4.03;1.73;;;;;;;14.97;100.00;99366.50;5034042;28;20428;-80
2022/09/17 11:29:43;;;;;;;2.70;1.80;;;;;;;14.71;100.00;99354.91;5035970;28;20032;-79
2022/09/17 11:32:28;;;;;;;5.32;1.75;;;;;;;14.94;100.00;99340.94;5035947;28;20029;-79
2022/09/17 11:35:30;;;;;;;1.92;1.75;;;;;;;14.84;100.00;99335.59;5034259;28;20108;-79
2022/09/17 11:38:33;;;;;;;4.78;1.80;;;;;;;15.07;100.00;99336.00;5004247;28;20030;-77
2022/09/17 11:41:03;;;;;;;2.85;2.10;;;;;;;15.36;99.80;99336.34;5033032;28;20037;-77
2022/09/17 11:43:37;;;;;;;6.45;1.52;;;;;;;15.51;96.54;99333.72;5033816;28;20100;-77
2022/09/17 11:46:24;;;;;;;2.05;1.77;;;;;;;15.74;92.73;99334.88;5000768;28;20124;-77
2022/09/17 11:49:02;;;;;;;1.80;1.13;;;;;;;15.72;90.78;99333.84;5036989;28;20037;-76
2022/09/17 11:51:35;;;;;;;1.48;1.05;;;;;;;15.51;88.26;99320.09;5034240;28;20108;-81
2022/09/17 11:54:20;;;;;;;1.40;1.30;;;;;;;15.35;88.46;99337.66;5032184;28;20025;-78
2022/09/17 11:56:52;;;;;;;1.80;1.00;;;;;;;15.71;88.41;99341.75;5035003;28;20071;-81
2022/09/17 11:59:39;;;;;;;2.95;1.10;;;;;;;15.82;87.45;99330.00;5040008;28;20108;-77
2022/09/17 12:02:20;;;;;;;1.67;1.35;;;;;;;15.47;86.71;99330.38;5043282;28;20030;-79
2022/09/17 12:05:32;;;;;;;2.20;1.15;;;;;;;15.19;88.09;99331.63;5033467;28;20060;-77
2022/09/17 12:08:18;;;;;;;1.97;1.13;;;;;;;15.54;93.92;99315.31;5006477;28;20535;-80
2022/09/17 12:10:59;;;;;;;1.23;1.13;;;;;;;15.75;90.02;99321.25;5033533;28;20021;-80
2022/09/17 12:13:41;;;;;;;2.28;1.05;;;;;;;15.84;87.39;99317.91;5033326;28;20120;-81
2022/09/17 12:16:32;;;;;;;1.67;0.90;;;;;;;16.11;86.56;99305.03;5033084;28;20489;-81
2022/09/17 12:19:31;;;;;;;2.60;1.10;;;;;;;16.29;83.80;99301.25;5034694;28;20045;-80
2022/09/17 12:22:05;;;;;;;1.92;1.10;;;;;;;16.39;82.81;99298.69;5052953;28;20500;-81
2022/09/17 12:24:33;;;;;;;3.08;1.35;;;;;;;16.34;84.23;99297.47;5052668;28;20111;-80
2022/09/17 12:27:05;;;;;;;2.88;1.20;;;;;;;16.63;85.02;99289.78;5021443;28;20024;-86
2022/09/17 12:29:49;;;;;;;;;;;;;;;16.76;82.63;99297.59;5049515;28;20033;-79
2022/09/17 12:32:59;;;;;;;1.88;1.20;;;;;;;16.89;82.97;99297.56;5043030;28;19908;-81
2022/09/17 12:35:49;;;;;;;2.15;1.33;;;;;;;16.93;84.93;99292.97;5013986;28;20182;-81
2022/09/17 12:38:40;;;;;;;1.25;1.00;;;;;;;16.99;83.99;99301.50;5044785;28;20026;-82
2022/09/17 12:41:21;;;;;;;2.22;2.00;;;;;;;16.97;85.22;99302.06;5048471;28;20027;-79
2022/09/17 12:43:55;;;;;;;4.07;1.38;;;;;;;16.87;83.46;99298.09;5023090;28;20376;-82
2022/09/17 12:46:27;;;;;;;2.75;1.60;;;;;;;16.83;84.69;99288.25;5043878;28;20036;-79
2022/09/17 12:49:31;;;;;;;1.42;1.13;;;;;;;16.79;84.70;99287.81;5047712;28;20028;-78